Time;durP1;ratioP1;P1;durP2;ratioP2;P2;SDS_P1;SDS_P2;PMS_P1;PMS_P2;Temp;Humidity;BMP_temperature;BMP_pressure;BME280_temperature;BME280_humidity;BME280_pressure;Samples;Min_cycle;Max_cycle;Signal;HPM_P1;HPM_P2
2022/08/24 00:01:26;;;;;;;6.08;5.37;;;;;;;20.55;96.46;100756.82;1763349;80;25970;-77
2022/08/24 00:03:58;;;;;;;9.63;6.15;;;;;;;20.53;96.22;100752.16;1783801;79;25812;-77
2022/08/24 00:06:26;;;;;;;9.38;5.97;;;;;;;20.53;96.14;100751.37;1729171;80;25849;-78
2022/08/24 00:08:56;;;;;;;7.30;5.15;;;;;;;20.50;96.11;100752.68;1746260;81;25256;-77
2022/08/24 00:11:23;;;;;;;6.45;5.60;;;;;;;20.50;95.98;100753.20;1723117;82;27540;-77
2022/08/24 00:13:50;;;;;;;10.88;6.22;;;;;;;20.49;95.90;100756.98;1734385;81;26005;-78
2022/08/24 00:16:18;;;;;;;9.35;6.90;;;;;;;20.48;95.82;100762.16;1770473;80;25771;-77
2022/08/24 00:18:47;;;;;;;10.30;5.70;;;;;;;20.47;95.99;100757.24;1778620;79;26204;-77
2022/08/24 00:21:14;;;;;;;9.88;6.90;;;;;;;20.48;95.95;100755.35;1786297;79;25713;-77
2022/08/24 00:23:41;;;;;;;7.62;6.08;;;;;;;20.47;95.97;100754.52;1771484;79;28014;-77
2022/08/24 00:26:08;;;;;;;7.35;5.80;;;;;;;20.49;95.96;100752.91;1786304;79;25738;-77
2022/08/24 00:28:35;;;;;;;8.60;5.58;;;;;;;20.47;95.88;100753.69;1779060;79;25710;-75
2022/08/24 00:31:02;;;;;;;9.35;6.70;;;;;;;20.46;95.82;100754.78;1782544;79;25787;-75
2022/08/24 00:33:29;;;;;;;10.10;5.45;;;;;;;20.45;95.82;100762.11;1722073;82;25948;-75
2022/08/24 00:35:55;;;;;;;8.60;6.53;;;;;;;20.44;95.75;100764.56;1742692;81;27527;-76
2022/08/24 00:38:21;;;;;;;8.95;6.50;;;;;;;20.43;95.77;100762.06;1743923;81;26301;-77
2022/08/24 00:40:49;;;;;;;15.58;7.65;;;;;;;20.43;95.78;100761.53;1725009;81;25738;-76
2022/08/24 00:43:22;;;;;;;8.35;6.50;;;;;;;20.42;95.86;100760.43;1732702;81;25915;-76
2022/08/24 00:46:11;;;;;;;7.03;6.17;;;;;;;20.42;95.89;100758.51;1803014;79;25942;-76
2022/08/24 00:48:42;;;;;;;12.73;6.08;;;;;;;20.42;95.95;100756.34;1774364;79;27517;-77
2022/08/24 00:51:29;;;;;;;9.45;6.05;;;;;;;20.42;95.94;100758.51;1793624;79;25694;-77
2022/08/24 00:54:04;;;;;;;6.22;5.67;;;;;;;20.41;95.92;100762.32;1774552;79;25891;-77
2022/08/24 00:56:50;;;;;;;10.60;6.87;;;;;;;20.40;95.91;100759.30;1772094;79;25765;-78
2022/08/24 00:59:25;;;;;;;9.08;7.53;;;;;;;20.38;95.89;100753.28;1779138;79;26666;-78
2022/08/24 01:01:53;;;;;;;10.35;7.30;;;;;;;20.37;96.07;100756.25;1780015;79;27926;-77
2022/08/24 01:04:27;;;;;;;13.75;7.15;;;;;;;20.34;96.34;100758.09;1781627;79;25777;-77
2022/08/24 01:06:55;;;;;;;8.58;6.65;;;;;;;20.33;96.41;100764.62;1784385;77;25720;-78
2022/08/24 01:09:22;;;;;;;12.33;7.12;;;;;;;20.31;96.44;100767.60;1757672;80;25816;-77
2022/08/24 01:11:49;;;;;;;9.95;7.12;;;;;;;20.30;96.46;100770.55;1792449;79;25915;-77
2022/08/24 01:14:18;;;;;;;9.20;7.10;;;;;;;20.29;96.58;100767.02;1795816;79;27431;-78
2022/08/24 01:19:46;;;;;;;8.83;7.75;;;;;;;20.30;96.74;100775.45;1771427;79;26342;-77
2022/08/24 01:22:39;;;;;;;9.98;7.50;;;;;;;20.29;96.68;100775.19;1793365;78;26395;-76
2022/08/24 01:25:06;;;;;;;9.83;7.20;;;;;;;20.29;96.70;100772.46;1782820;79;26425;-77
2022/08/24 01:27:34;;;;;;;11.63;8.20;;;;;;;20.30;96.58;100769.19;1804167;79;27445;-77
2022/08/24 01:30:04;;;;;;;10.40;7.85;;;;;;;20.28;96.46;100768.08;1793089;79;25846;-77
2022/08/24 01:32:31;;;;;;;12.88;8.10;;;;;;;20.28;96.42;100766.72;1771627;80;26439;-77
2022/08/24 01:34:58;;;;;;;11.12;7.62;;;;;;;20.27;96.45;100756.09;1766467;80;25930;-77
2022/08/24 01:37:24;;;;;;;10.90;7.92;;;;;;;20.28;96.39;100765.89;1761622;80;26220;-77
2022/08/24 01:39:55;;;;;;;12.85;7.60;;;;;;;20.27;96.35;100763.73;1766918;79;27424;-77
2022/08/24 01:42:21;;;;;;;12.90;8.48;;;;;;;20.27;96.35;100763.73;1787443;79;25908;-77
2022/08/24 01:44:48;;;;;;;13.35;8.38;;;;;;;20.27;96.35;100767.80;1784844;79;26026;-78
2022/08/24 01:47:16;;;;;;;12.70;7.72;;;;;;;20.27;96.31;100769.69;1800334;79;25772;-76
2022/08/24 01:49:47;;;;;;;10.13;7.78;;;;;;;20.26;96.18;100772.94;1792936;79;26098;-76
2022/08/24 01:52:19;;;;;;;12.23;7.92;;;;;;;20.25;96.13;100776.72;1783044;79;27457;-77
2022/08/24 01:54:46;;;;;;;8.48;7.55;;;;;;;20.23;96.03;100779.42;1795700;79;25669;-76
2022/08/24 01:57:13;;;;;;;9.78;7.50;;;;;;;20.22;95.98;100781.31;1782398;79;25773;-77
2022/08/24 01:59:41;;;;;;;10.78;7.95;;;;;;;20.21;96.08;100778.28;1794422;79;26488;-75
2022/08/24 02:02:18;;;;;;;14.85;7.87;;;;;;;20.18;95.90;100785.56;1777601;79;25723;-76
2022/08/24 02:04:45;;;;;;;8.20;7.40;;;;;;;20.14;95.86;100784.93;1763575;80;28311;-77
2022/08/24 02:07:12;;;;;;;10.35;7.30;;;;;;;20.10;95.81;100785.97;1758763;80;25849;-77
2022/08/24 02:09:40;;;;;;;7.92;6.92;;;;;;;20.08;95.67;100784.55;1776930;79;25759;-77
2022/08/24 02:12:07;;;;;;;7.03;6.15;;;;;;;20.06;95.67;100788.05;1788551;79;26447;-77
2022/08/24 02:14:35;;;;;;;10.30;7.85;;;;;;;20.04;95.59;100795.08;1786861;79;25759;-78
2022/08/24 02:17:04;;;;;;;10.80;7.80;;;;;;;20.02;95.58;100799.94;1767304;80;27529;-77
2022/08/24 02:19:31;;;;;;;13.20;7.58;;;;;;;19.99;95.70;100795.00;1761215;80;25778;-78
2022/08/24 02:21:59;;;;;;;10.43;8.20;;;;;;;19.96;95.87;100805.83;1770553;79;25909;-77
2022/08/24 02:24:28;;;;;;;12.20;7.65;;;;;;;19.96;96.02;100796.83;1779811;79;25788;-78
2022/08/24 02:26:57;;;;;;;11.45;7.30;;;;;;;19.95;96.00;100806.87;1790469;79;25775;-77
2022/08/24 02:29:24;;;;;;;12.05;6.72;;;;;;;19.95;95.88;100804.72;1749928;80;28111;-78
2022/08/24 02:31:50;;;;;;;7.62;5.87;;;;;;;19.92;95.71;100804.66;1739587;81;25930;-78
2022/08/24 02:34:17;;;;;;;6.65;6.00;;;;;;;19.89;95.79;100800.22;1734809;81;25859;-78
2022/08/24 02:36:44;;;;;;;7.42;6.22;;;;;;;19.87;95.64;100807.27;1740240;81;26448;-78
2022/08/24 02:39:10;;;;;;;6.80;6.12;;;;;;;19.85;95.62;100803.97;1779103;79;25812;-77
2022/08/24 02:41:37;;;;;;;7.30;6.60;;;;;;;19.83;95.51;100800.67;1772536;80;27608;-77
2022/08/24 02:44:05;;;;;;;6.53;5.42;;;;;;;19.80;95.41;100799.78;1796318;79;25780;-77
2022/08/24 02:46:32;;;;;;;6.62;5.12;;;;;;;19.79;95.31;100806.83;1779104;79;25745;-76
2022/08/24 02:48:59;;;;;;;9.80;6.33;;;;;;;19.77;95.19;100807.61;1778121;79;25812;-76
2022/08/24 02:51:29;;;;;;;9.50;6.25;;;;;;;19.74;95.19;100804.00;1796692;79;25708;-76
2022/08/24 02:53:58;;;;;;;9.78;6.37;;;;;;;19.75;95.31;100811.94;1777789;80;28244;-76
2022/08/24 02:56:28;;;;;;;10.32;7.67;;;;;;;19.74;95.38;100808.08;1769441;80;26048;-76
2022/08/24 02:58:57;;;;;;;12.33;7.50;;;;;;;19.75;95.38;100816.02;1786672;79;25903;-77
2022/08/24 03:01:25;;;;;;;9.48;7.53;;;;;;;19.73;95.48;100811.36;1799447;79;25880;-76
2022/08/24 03:03:53;;;;;;;7.35;6.60;;;;;;;19.72;95.65;100809.69;1798504;79;25771;-77
2022/08/24 03:06:20;;;;;;;9.45;7.15;;;;;;;19.71;95.64;100811.30;1790906;78;28243;-77
2022/08/24 03:08:47;;;;;;;8.00;7.00;;;;;;;19.72;95.70;100810.22;1803346;79;25901;-78
2022/08/24 03:11:14;;;;;;;10.63;6.97;;;;;;;19.70;95.72;100806.39;1769873;79;25831;-78
2022/08/24 03:13:40;;;;;;;10.88;6.65;;;;;;;19.69;95.65;100807.47;1784178;79;25822;-76
2022/08/24 03:16:07;;;;;;;14.50;7.05;;;;;;;19.67;95.53;100812.32;1780126;79;25877;-75
2022/08/24 03:18:35;;;;;;;12.58;7.22;;;;;;;19.67;95.43;100814.20;1778124;79;27464;-75
2022/08/24 03:21:02;;;;;;;14.30;6.75;;;;;;;19.66;95.46;100816.62;1783891;79;25887;-75
2022/08/24 03:23:29;;;;;;;10.60;6.92;;;;;;;19.64;95.41;100816.03;1780214;79;25674;-76
2022/08/24 03:25:57;;;;;;;9.15;6.80;;;;;;;19.62;95.44;100815.45;1780538;79;26185;-75
2022/08/24 03:28:25;;;;;;;9.63;6.85;;;;;;;19.61;95.41;100824.69;1781268;79;26459;-77
2022/08/24 03:30:52;;;;;;;8.93;7.22;;;;;;;19.60;95.48;100821.66;1784539;79;28270;-76
2022/08/24 03:33:19;;;;;;;8.45;6.72;;;;;;;19.59;95.80;100815.95;1784921;79;25944;-76
2022/08/24 03:35:47;;;;;;;14.13;6.95;;;;;;;19.58;95.96;100815.64;1785356;78;26335;-77
2022/08/24 03:38:14;;;;;;;18.50;5.90;;;;;;;19.53;95.66;100819.08;1786978;79;25779;-76
2022/08/24 03:40:41;;;;;;;10.15;5.75;;;;;;;19.48;95.41;100825.75;1784833;79;25711;-76
2022/08/24 03:43:44;;;;;;;10.23;5.28;;;;;;;19.42;95.42;100831.34;1790707;78;27436;-76
2022/08/24 03:45:36;;;;;;;17.20;5.42;;;;;;;19.38;95.51;100829.62;1723868;81;26584;-76
2022/08/24 03:48:03;;;;;;;8.73;5.12;;;;;;;19.34;95.63;100832.52;1730342;81;25808;-77
2022/08/24 03:50:30;;;;;;;7.22;5.20;;;;;;;19.35;95.66;100836.06;1704890;81;25985;-77
2022/08/24 03:52:57;;;;;;;8.18;5.83;;;;;;;19.35;95.64;100834.71;1754730;80;26305;-76
2022/08/24 03:55:24;;;;;;;11.95;6.95;;;;;;;19.35;95.86;100844.22;1728478;81;28204;-77
2022/08/24 03:57:50;;;;;;;9.98;8.00;;;;;;;19.32;95.95;100849.56;1732996;81;25751;-77
2022/08/24 04:00:17;;;;;;;23.22;16.65;;;;;;;19.31;96.13;100847.89;1730738;81;25789;-76
2022/08/24 04:02:45;;;;;;;14.55;9.88;;;;;;;19.33;96.32;100842.23;1788152;79;25946;-77
2022/08/24 04:05:13;;;;;;;10.32;7.55;;;;;;;19.34;96.40;100846.10;1786129;79;26553;-77
2022/08/24 04:07:40;;;;;;;9.50;7.30;;;;;;;19.35;96.39;100841.50;1749562;79;28718;-77
2022/08/24 04:10:08;;;;;;;14.07;7.42;;;;;;;19.35;96.48;100847.77;1722124;82;25808;-76
2022/08/24 04:12:34;;;;;;;10.53;8.48;;;;;;;19.36;96.62;100849.41;1784413;79;25787;-75
2022/08/24 04:15:01;;;;;;;8.53;7.60;;;;;;;19.37;96.86;100851.59;1783640;79;25783;-75
2022/08/24 04:17:29;;;;;;;8.80;7.60;;;;;;;19.38;96.95;100852.70;1783677;79;25990;-76
2022/08/24 04:19:58;;;;;;;8.03;6.25;;;;;;;19.40;96.87;100850.58;1750500;81;28307;-77
2022/08/24 04:22:30;;;;;;;8.60;5.58;;;;;;;19.40;96.80;100853.30;1748560;81;26455;-76
2022/08/24 04:24:57;;;;;;;7.33;5.65;;;;;;;19.41;96.51;100850.88;1732474;81;28682;-76
2022/08/24 04:27:24;;;;;;;8.20;6.03;;;;;;;19.41;96.29;100851.41;1726606;81;26581;-76
2022/08/24 04:29:50;;;;;;;15.90;7.05;;;;;;;19.40;96.21;100856.01;1727722;81;25715;-77
2022/08/24 04:32:17;;;;;;;7.83;6.90;;;;;;;19.41;96.20;100852.77;1759949;80;29048;-76
2022/08/24 04:34:45;;;;;;;15.75;6.20;;;;;;;19.40;96.20;100852.46;1788906;79;25890;-77
2022/08/24 04:37:13;;;;;;;15.60;6.03;;;;;;;19.40;96.10;100857.89;1772126;79;25839;-76
2022/08/24 04:39:40;;;;;;;18.27;5.62;;;;;;;19.40;96.03;100856.53;1769316;80;26721;-77
2022/08/24 04:42:11;;;;;;;26.90;6.67;;;;;;;19.39;96.07;100862.52;1772461;79;25762;-77
2022/08/24 04:44:39;;;;;;;15.38;6.58;;;;;;;19.40;96.21;100864.16;1785883;79;27464;-77
2022/08/24 04:47:07;;;;;;;10.08;6.15;;;;;;;19.41;96.31;100866.35;1785918;79;26352;-77
2022/08/24 04:49:36;;;;;;;12.50;6.30;;;;;;;19.41;96.42;100868.55;1782854;78;25701;-77
2022/08/24 04:52:03;;;;;;;7.47;6.05;;;;;;;19.43;96.60;100872.38;1782614;80;25781;-77
2022/08/24 04:54:31;;;;;;;6.20;5.70;;;;;;;19.45;96.76;100875.67;1756277;80;25731;-77
2022/08/24 04:57:02;;;;;;;6.47;5.60;;;;;;;19.47;96.90;100873.55;1727763;81;27697;-77
2022/08/24 04:59:28;;;;;;;7.28;6.15;;;;;;;19.50;97.18;100867.65;1731391;81;25808;-77
2022/08/24 05:01:55;;;;;;;7.03;5.87;;;;;;;19.53;97.58;100869.87;1735693;81;26445;-77
2022/08/24 05:04:21;;;;;;;5.95;5.22;;;;;;;19.58;97.93;100869.47;1776051;80;25961;-77
2022/08/24 05:06:49;;;;;;;8.88;7.00;;;;;;;19.63;98.04;100879.62;1748323;79;25834;-77
2022/08/24 05:09:15;;;;;;;7.37;6.58;;;;;;;19.65;98.20;100876.94;1708245;82;26916;-75
2022/08/24 05:11:42;;;;;;;7.37;6.10;;;;;;;19.68;98.42;100882.43;1723950;82;25910;-76
2022/08/24 05:14:09;;;;;;;9.78;7.15;;;;;;;19.72;98.56;100887.67;1723703;82;25798;-75
2022/08/24 05:16:36;;;;;;;9.60;7.65;;;;;;;19.76;98.86;100884.80;1737853;81;26407;-76
2022/08/24 05:19:05;;;;;;;8.73;7.87;;;;;;;19.79;98.86;100889.22;1803167;78;25704;-77
2022/08/24 05:21:33;;;;;;;9.37;8.23;;;;;;;19.82;99.24;100883.28;1805956;79;27941;-76
2022/08/24 05:23:59;;;;;;;8.20;7.42;;;;;;;19.85;99.38;100882.81;1806389;79;26078;-77
2022/08/24 05:26:29;;;;;;;8.28;7.47;;;;;;;19.87;99.45;100885.28;1775713;78;25285;-77
2022/08/24 05:29:00;;;;;;;7.97;7.17;;;;;;;19.91;99.65;100883.20;1796703;79;25804;-77
2022/08/24 05:31:32;;;;;;;10.23;8.75;;;;;;;19.98;99.86;100881.70;1804469;79;25977;-76
2022/08/24 05:34:03;;;;;;;9.83;8.83;;;;;;;20.04;99.92;100882.66;1801965;79;28241;-76
2022/08/24 05:36:33;;;;;;;11.30;9.07;;;;;;;20.12;100.00;100883.09;1803762;79;25928;-77
2022/08/24 05:39:04;;;;;;;11.55;9.08;;;;;;;20.20;100.00;100882.73;1804435;79;25796;-77
2022/08/24 05:41:31;;;;;;;9.78;8.75;;;;;;;20.27;100.00;100877.98;1807811;78;25863;-77
2022/08/24 05:44:00;;;;;;;9.75;7.35;;;;;;;20.34;100.00;100884.08;1800167;78;25743;-77
2022/08/24 05:46:27;;;;;;;11.63;8.95;;;;;;;20.40;99.98;100877.66;1800074;79;27459;-77
2022/08/24 05:48:56;;;;;;;9.20;8.30;;;;;;;20.46;100.00;100883.51;1803588;79;25770;-79
2022/08/24 05:51:28;;;;;;;11.60;8.43;;;;;;;20.49;100.00;100877.55;1794682;79;25890;-78
2022/08/24 05:53:58;;;;;;;10.15;8.95;;;;;;;20.52;100.00;100878.44;1804070;78;26300;-76
2022/08/24 05:56:26;;;;;;;17.25;9.83;;;;;;;20.54;99.98;100880.91;1802196;79;26144;-77
2022/08/24 05:58:53;;;;;;;12.07;8.68;;;;;;;20.55;99.82;100877.94;1782614;79;27454;-77
2022/08/24 06:01:24;;;;;;;11.05;9.20;;;;;;;20.56;99.85;100882.32;1789692;79;25844;-77
2022/08/24 06:03:53;;;;;;;10.13;9.13;;;;;;;20.57;99.81;100878.52;1787008;78;25820;-77
2022/08/24 06:06:22;;;;;;;11.55;8.60;;;;;;;20.59;100.00;100879.09;1786658;76;26510;-77
2022/08/24 06:08:52;;;;;;;12.33;8.85;;;;;;;20.63;100.00;100876.72;1743712;81;26384;-77
2022/08/24 06:11:24;;;;;;;;;;;;;;;20.68;100.00;100880.87;1715609;81;28852;-76
2022/08/24 06:13:53;;;;;;;9.83;8.78;;;;;;;20.72;100.00;100877.98;1723237;81;26358;-77
2022/08/24 06:16:22;;;;;;;10.58;9.55;;;;;;;20.74;100.00;100875.27;1727362;81;25794;-77
2022/08/24 06:18:52;;;;;;;9.68;8.75;;;;;;;20.78;100.00;100873.44;1780779;79;26369;-77
2022/08/24 06:21:23;;;;;;;9.68;8.05;;;;;;;20.82;100.00;100876.78;1781298;79;25827;-77
2022/08/24 06:23:50;;;;;;;16.40;9.05;;;;;;;20.91;100.00;100871.75;1788866;79;27444;-77
2022/08/24 06:29:05;;;;;;;12.65;8.13;;;;;;;20.94;100.00;100869.88;1794853;79;25736;-77
2022/08/24 06:31:39;;;;;;;12.00;8.43;;;;;;;20.94;100.00;100870.70;1783137;79;25785;-77
2022/08/24 06:34:11;;;;;;;12.73;9.10;;;;;;;20.98;100.00;100871.05;1782345;79;25870;-80
2022/08/24 06:36:37;;;;;;;12.88;9.20;;;;;;;21.01;100.00;100863.73;1787736;79;27386;-75
2022/08/24 06:39:05;;;;;;;10.25;7.95;;;;;;;21.01;100.00;100867.28;1801664;79;25865;-76
2022/08/24 06:41:31;;;;;;;17.02;8.98;;;;;;;21.02;100.00;100868.92;1801099;79;25731;-76
2022/08/24 06:43:58;;;;;;;14.25;9.35;;;;;;;21.01;100.00;100868.65;1788302;79;25909;-76
2022/08/24 06:46:26;;;;;;;16.45;9.33;;;;;;;21.00;100.00;100871.06;1783514;79;25754;-76
2022/08/24 06:48:52;;;;;;;11.25;9.50;;;;;;;21.00;100.00;100877.87;1784619;79;27452;-75
2022/08/24 06:51:24;;;;;;;11.70;9.00;;;;;;;21.01;100.00;100874.09;1784360;79;25929;-75
2022/08/24 06:53:54;;;;;;;10.13;9.10;;;;;;;21.06;100.00;100876.94;1782870;78;25786;-76
2022/08/24 06:56:21;;;;;;;14.70;9.43;;;;;;;21.12;100.00;100880.03;1753793;81;26499;-76
2022/08/24 06:58:47;;;;;;;16.37;8.10;;;;;;;21.17;100.00;100875.20;1733804;81;25659;-75
2022/08/24 07:01:20;;;;;;;10.95;9.30;;;;;;;21.20;100.00;100875.52;1748283;80;28353;-76
2022/08/24 07:03:47;;;;;;;17.27;9.45;;;;;;;21.31;100.00;100874.59;1756644;80;25773;-76
2022/08/24 07:06:23;;;;;;;15.50;8.28;;;;;;;21.46;100.00;100873.98;1764104;79;25740;-76
2022/08/24 07:08:52;;;;;;;13.15;7.47;;;;;;;21.59;100.00;100874.98;1780973;80;25831;-76
2022/08/24 07:11:19;;;;;;;16.15;8.33;;;;;;;21.72;100.00;100880.60;1759660;79;25780;-76
2022/08/24 07:13:48;;;;;;;13.60;8.03;;;;;;;21.85;100.00;100888.44;1750408;80;27443;-76
2022/08/24 07:16:19;;;;;;;9.50;7.08;;;;;;;21.90;100.00;100896.66;1752448;80;25450;-76
2022/08/24 07:18:47;;;;;;;17.23;7.83;;;;;;;21.91;99.90;100904.62;1747934;80;25828;-75
2022/08/24 07:21:18;;;;;;;10.23;7.87;;;;;;;21.95;99.61;100903.56;1747922;81;25833;-75
2022/08/24 07:23:45;;;;;;;12.40;6.27;;;;;;;21.99;99.66;100906.89;1755983;81;26403;-75
2022/08/24 07:26:21;;;;;;;17.37;11.97;;;;;;;22.06;99.60;100910.80;1774253;78;27434;-75
2022/08/24 07:29:04;;;;;;;30.75;24.75;;;;;;;22.14;99.52;100905.72;1768586;80;25804;-75
2022/08/24 07:31:34;;;;;;;14.28;8.88;;;;;;;22.20;99.30;100909.31;1763919;78;26423;-75
2022/08/24 07:34:05;;;;;;;13.05;8.20;;;;;;;22.26;98.92;100913.78;1722936;81;25772;-75
2022/08/24 07:36:33;;;;;;;16.60;7.60;;;;;;;22.31;98.59;100918.44;1735953;81;25794;-75
2022/08/24 07:38:59;;;;;;;13.32;8.05;;;;;;;22.37;98.51;100919.61;1738169;81;27504;-75
2022/08/24 07:41:26;;;;;;;12.00;7.65;;;;;;;22.50;98.69;100926.03;1772222;79;26463;-75
2022/08/24 07:43:55;;;;;;;18.67;11.33;;;;;;;22.60;98.48;100928.09;1793919;79;25634;-75
2022/08/24 07:46:21;;;;;;;10.43;7.85;;;;;;;22.65;98.32;100929.48;1792713;78;25826;-75
2022/08/24 07:48:49;;;;;;;13.15;6.83;;;;;;;22.70;98.31;100933.11;1784181;79;25934;-75
2022/08/24 07:51:19;;;;;;;16.32;6.35;;;;;;;22.74;97.58;100935.60;1782351;80;28250;-75
2022/08/24 07:53:46;;;;;;;16.82;6.67;;;;;;;22.76;96.40;100939.44;1788205;79;25982;-75
2022/08/24 07:56:12;;;;;;;13.80;7.85;;;;;;;22.79;96.39;100947.95;1788019;79;26428;-75
2022/08/24 07:58:40;;;;;;;23.87;7.17;;;;;;;22.87;96.26;100952.11;1796522;79;25951;-76
2022/08/24 08:01:08;;;;;;;13.65;6.75;;;;;;;22.92;95.75;100948.06;1792722;79;25762;-75
2022/08/24 08:03:36;;;;;;;15.55;7.40;;;;;;;22.96;95.59;100950.03;1796600;79;27471;-75
2022/08/24 08:06:06;;;;;;;12.90;6.53;;;;;;;23.05;96.07;100951.74;1799386;79;25802;-75
2022/08/24 08:08:39;;;;;;;11.22;6.70;;;;;;;23.16;96.13;100947.98;1794909;79;25881;-75
2022/08/24 08:11:07;;;;;;;14.33;6.72;;;;;;;23.25;95.74;100950.52;1789853;79;26470;-76
2022/08/24 08:13:36;;;;;;;13.30;6.65;;;;;;;23.28;94.71;100955.48;1795412;79;25785;-75
2022/08/24 08:16:03;;;;;;;8.45;6.25;;;;;;;23.34;94.47;100954.46;1791968;79;27509;-75
2022/08/24 08:18:30;;;;;;;14.55;6.17;;;;;;;23.38;94.57;100951.48;1768684;79;25724;-75
2022/08/24 08:20:57;;;;;;;10.68;6.28;;;;;;;23.44;94.62;100957.26;1754495;79;25862;-75
2022/08/24 08:26:15;;;;;;;13.38;8.70;;;;;;;23.52;94.06;100968.27;1761832;80;25944;-76
2022/08/24 08:28:43;;;;;;;12.63;7.72;;;;;;;23.55;93.97;100967.19;1767642;80;27431;-76
2022/08/24 08:31:10;;;;;;;12.55;6.47;;;;;;;23.61;94.45;100972.97;1783473;78;26074;-76
2022/08/24 08:33:36;;;;;;;12.88;7.45;;;;;;;23.67;94.58;100971.91;1793192;79;25304;-76
2022/08/24 08:36:11;;;;;;;14.40;8.03;;;;;;;23.74;94.70;100971.14;1797702;79;26379;-76
2022/08/24 08:38:41;;;;;;;12.03;6.97;;;;;;;23.79;94.51;100971.72;1796271;79;25806;-76
2022/08/24 08:41:37;;;;;;;16.65;6.42;;;;;;;23.82;94.12;100969.00;1783460;79;27439;-76
2022/08/24 08:44:14;;;;;;;13.45;7.70;;;;;;;23.88;93.81;100965.20;1790082;79;25695;-76
2022/08/24 08:47:24;;;;;;;14.47;7.05;;;;;;;23.93;93.92;100968.78;1791920;79;25732;-76
2022/08/24 08:50:05;;;;;;;16.17;7.58;;;;;;;23.98;92.97;100970.19;1779281;79;26400;-76
2022/08/24 08:53:15;;;;;;;9.15;6.22;;;;;;;24.00;92.54;100967.17;1779715;79;25921;-77
2022/08/24 08:55:52;;;;;;;9.43;5.90;;;;;;;24.05;92.32;100964.50;1730004;81;26970;-76
2022/08/24 08:58:49;;;;;;;13.53;6.35;;;;;;;24.07;92.54;100956.31;1688951;83;26263;-76
2022/08/24 09:01:53;;;;;;;17.32;6.92;;;;;;;24.06;91.85;100959.33;1734925;80;25835;-76
2022/08/24 09:05:02;;;;;;;14.58;6.40;;;;;;;24.04;92.19;100959.56;1724142;81;25788;-76
2022/08/24 09:08:04;;;;;;;15.68;6.90;;;;;;;24.03;91.47;100962.55;1722300;81;25719;-76
2022/08/24 09:10:55;;;;;;;12.10;6.25;;;;;;;24.05;91.55;100972.17;1725188;81;27444;-76
2022/08/24 09:13:45;;;;;;;15.60;7.00;;;;;;;24.10;91.40;100970.02;1740902;81;25861;-76
2022/08/24 09:16:46;;;;;;;15.80;7.05;;;;;;;24.10;91.14;100970.81;1734859;81;25749;-77
2022/08/24 09:19:34;;;;;;;16.00;6.33;;;;;;;24.17;91.70;100972.77;1734034;81;25876;-76
2022/08/24 09:22:14;;;;;;;17.32;6.92;;;;;;;24.23;91.12;100973.06;1779836;79;26456;-76
2022/08/24 09:25:01;;;;;;;19.67;6.60;;;;;;;24.32;91.20;100970.09;1775385;79;27528;-76
2022/08/24 09:27:38;;;;;;;17.48;7.00;;;;;;;24.38;90.78;100969.55;1786289;79;25795;-77
2022/08/24 09:30:21;;;;;;;14.10;6.55;;;;;;;24.46;90.73;100975.91;1787117;79;46191;-76
2022/08/24 09:33:14;;;;;;;19.75;6.45;;;;;;;24.55;90.70;100976.20;1782884;79;25794;-76
2022/08/24 09:36:00;;;;;;;17.07;6.35;;;;;;;24.63;91.24;100971.02;1789954;79;26039;-76
2022/08/24 09:38:57;;;;;;;11.38;6.08;;;;;;;24.69;90.62;100972.67;1782099;79;27436;-76
2022/08/24 09:41:56;;;;;;;15.83;6.75;;;;;;;24.72;89.27;100973.48;1792006;79;25932;-76
2022/08/24 09:44:54;;;;;;;15.83;6.30;;;;;;;24.74;89.21;100971.87;1785236;79;25758;-76
2022/08/24 09:47:29;;;;;;;17.35;6.25;;;;;;;24.78;88.67;100973.00;1786253;78;25974;-76
2022/08/24 09:50:28;;;;;;;16.80;6.05;;;;;;;24.82;88.65;100974.09;1756330;80;25810;-76
2022/08/24 09:53:29;;;;;;;22.48;6.60;;;;;;;24.89;88.83;100974.67;1742506;81;27614;-76
2022/08/24 09:56:18;;;;;;;20.68;6.80;;;;;;;25.01;89.07;100975.22;1790360;79;25254;-76
2022/08/24 09:58:59;;;;;;;17.42;6.25;;;;;;;25.16;89.76;100973.86;1787746;79;25948;-76
2022/08/24 10:02:08;;;;;;;14.10;5.65;;;;;;;25.28;90.37;100971.66;1783700;80;26572;-76
2022/08/24 10:05:02;;;;;;;16.23;6.17;;;;;;;25.38;89.95;100966.19;1792002;79;25731;-77
2022/08/24 10:07:37;;;;;;;22.17;6.53;;;;;;;25.43;88.43;100972.26;1777670;80;28244;-77
2022/08/24 10:10:31;;;;;;;11.68;6.67;;;;;;;25.42;88.29;100973.34;1793132;78;26472;-77
2022/08/24 10:13:21;;;;;;;15.10;6.55;;;;;;;25.45;88.19;100972.80;1792009;79;25869;-76
2022/08/24 10:16:18;;;;;;;20.85;6.47;;;;;;;25.45;88.97;100962.63;1787806;79;26563;-77
2022/08/24 10:19:14;;;;;;;18.05;6.45;;;;;;;25.45;88.97;100962.63;1788769;79;26485;-77
2022/08/24 10:22:17;;;;;;;21.50;6.50;;;;;;;25.53;87.95;100962.09;1785674;78;28524;-78
2022/08/24 10:24:58;;;;;;;23.60;6.37;;;;;;;25.59;88.35;100967.84;1786905;79;25820;-77
2022/08/24 10:27:47;;;;;;;22.37;6.90;;;;;;;25.62;88.31;100964.52;1731659;81;25793;-77
2022/08/24 10:30:28;;;;;;;21.55;7.55;;;;;;;25.65;87.16;100964.52;1790456;79;26582;-77
2022/08/24 10:33:15;;;;;;;21.73;6.20;;;;;;;25.68;86.89;100966.73;1764368;80;26529;-77
2022/08/24 10:36:09;;;;;;;24.23;5.62;;;;;;;25.68;86.15;100963.98;1786691;79;27526;-76
2022/08/24 10:43:32;;;;;;;24.67;6.67;;;;;;;25.70;86.39;100966.73;1782010;79;26496;-77
2022/08/24 10:44:56;;;;;;;28.50;6.20;;;;;;;25.72;86.09;100963.70;1791829;78;26455;-77
2022/08/24 10:47:29;;;;;;;22.17;6.78;;;;;;;25.71;86.07;100962.87;1791480;78;25771;-77
2022/08/24 10:50:27;;;;;;;27.02;6.00;;;;;;;25.71;85.90;100966.16;1795464;79;27496;-77
2022/08/24 10:53:11;;;;;;;23.12;6.92;;;;;;;25.71;85.94;100964.23;1794477;79;25871;-77
2022/08/24 10:55:38;;;;;;;23.52;6.72;;;;;;;25.73;86.38;100963.95;1783642;79;25892;-77
2022/08/24 10:58:36;;;;;;;19.60;6.83;;;;;;;25.73;86.08;100966.70;1786810;79;26534;-77
2022/08/24 11:01:22;;;;;;;22.75;6.00;;;;;;;25.76;86.52;100968.36;1794899;79;25844;-76
2022/08/24 11:03:57;;;;;;;21.52;6.47;;;;;;;25.79;86.13;100966.41;1795206;79;28000;-76
2022/08/24 11:06:30;;;;;;;17.00;6.40;;;;;;;25.82;86.00;100963.66;1792226;79;25864;-76
2022/08/24 11:09:04;;;;;;;17.55;6.40;;;;;;;25.86;85.77;100966.95;1796893;79;26452;-76
2022/08/24 11:11:39;;;;;;;19.15;6.90;;;;;;;25.93;86.22;100968.03;1793485;79;25823;-76
2022/08/24 11:14:11;;;;;;;24.85;7.15;;;;;;;25.98;86.07;100961.96;1794974;79;26210;-76
2022/08/24 11:16:41;;;;;;;26.65;6.85;;;;;;;26.02;85.39;100964.98;1776321;79;28271;-76
2022/08/24 11:19:30;;;;;;;29.92;6.97;;;;;;;26.08;85.44;100965.78;1787617;79;25774;-76
2022/08/24 11:22:00;;;;;;;25.65;7.00;;;;;;;26.13;84.80;100965.80;1792816;79;25762;-76
2022/08/24 11:24:43;;;;;;;22.40;6.67;;;;;;;26.22;84.84;100958.06;1781813;79;26568;-76
2022/08/24 11:27:23;;;;;;;23.57;6.83;;;;;;;26.35;84.89;100967.06;1795836;78;25826;-76
2022/08/24 11:29:54;;;;;;;19.30;6.67;;;;;;;26.46;85.00;100974.70;1793836;79;27548;-76
2022/08/24 11:32:47;;;;;;;33.45;7.22;;;;;;;26.52;84.73;100968.91;1768030;80;25738;-76
2022/08/24 11:35:34;;;;;;;26.65;6.00;;;;;;;26.60;84.37;100973.00;1768749;80;26377;-77
2022/08/24 11:38:21;;;;;;;26.82;7.45;;;;;;;26.65;83.84;100975.16;1785710;79;25826;-77
2022/08/24 11:41:04;;;;;;;25.68;6.40;;;;;;;26.67;83.62;100974.86;1758059;80;26107;-77
2022/08/24 11:43:48;;;;;;;27.65;6.42;;;;;;;26.70;83.35;100970.18;1791293;79;27445;-77
2022/08/24 11:46:29;;;;;;;27.60;6.50;;;;;;;26.77;83.43;100968.52;1792159;78;25835;-76
2022/08/24 11:49:07;;;;;;;;;;;;;;;26.83;83.55;100970.13;1782229;79;25903;-76
2022/08/24 11:51:54;;;;;;;20.60;6.05;;;;;;;26.86;82.47;100968.20;1783042;79;26389;-76
2022/08/24 11:54:44;;;;;;;26.35;6.05;;;;;;;26.83;82.34;100969.58;1793822;78;26324;-76
2022/08/24 11:57:22;;;;;;;24.30;7.20;;;;;;;26.86;82.50;100966.82;1791139;79;27454;-76
2022/08/24 12:00:18;;;;;;;28.42;7.25;;;;;;;26.89;82.19;100970.36;1776664;79;25790;-76